createdAt,value
2023-01-26T04:29:12.597Z,101030.58
2023-01-26T04:31:42.370Z,101007.67
2023-01-26T04:34:13.837Z,101008.58
2023-01-26T04:36:41.092Z,101003.77
2023-01-26T04:39:08.119Z,101005.20
2023-01-26T04:41:37.896Z,101004.50
2023-01-26T04:44:08.392Z,100998.71
2023-01-26T04:46:35.607Z,100999.65
2023-01-26T04:49:03.431Z,100998.09
2023-01-26T04:51:30.289Z,100996.71
2023-01-26T04:53:57.046Z,100991.84
2023-01-26T04:56:25.870Z,100993.54
2023-01-26T04:58:53.103Z,100989.55
2023-01-26T05:01:20.965Z,100986.41
2023-01-26T05:03:48.391Z,100981.31
2023-01-26T05:06:15.468Z,100981.58
2023-01-26T05:08:45.162Z,100985.17
2023-01-26T05:11:12.423Z,100986.09
2023-01-26T05:13:53.390Z,100986.10
2023-01-26T05:16:36.667Z,100985.08
2023-01-26T05:19:08.668Z,100985.66
2023-01-26T05:21:46.224Z,100978.80
2023-01-26T05:24:13.502Z,100971.34
2023-01-26T05:27:17.464Z,100972.35
2023-01-26T05:29:45.437Z,100972.73
2023-01-26T05:32:12.185Z,100971.80
2023-01-26T05:34:39.623Z,100972.05
2023-01-26T05:37:06.812Z,100969.29
2023-01-26T05:39:34.704Z,100970.69
2023-01-26T05:42:04.890Z,100975.38
2023-01-26T05:44:50.114Z,100968.84
2023-01-26T05:47:17.251Z,100968.92
2023-01-26T05:49:50.286Z,100966.63
2023-01-26T05:52:21.950Z,100966.20
2023-01-26T05:54:50.476Z,100969.79
2023-01-26T05:57:17.695Z,100969.59
2023-01-26T05:59:49.948Z,100972.66
2023-01-26T06:02:17.530Z,100970.55
2023-01-26T06:04:44.945Z,100974.58
2023-01-26T06:07:13.080Z,100977.13
2023-01-26T06:09:48.208Z,100976.00
2023-01-26T06:12:22.176Z,100975.18
2023-01-26T06:14:51.565Z,100976.29
2023-01-26T06:17:18.518Z,100975.42
2023-01-26T06:19:48.857Z,100974.64
2023-01-26T06:22:16.380Z,100981.85
2023-01-26T06:24:47.081Z,100976.05
2023-01-26T06:27:17.269Z,100977.42
2023-01-26T06:29:45.231Z,100975.92
2023-01-26T06:32:13.227Z,100978.71
2023-01-26T06:34:40.785Z,100978.08
2023-01-26T06:37:08.116Z,100978.59
2023-01-26T06:39:37.775Z,100980.60
2023-01-26T06:42:04.628Z,100980.29
2023-01-26T06:44:32.056Z,100979.09
2023-01-26T06:46:58.789Z,100985.88
2023-01-26T06:49:25.680Z,100983.81
2023-01-26T06:52:03.667Z,100978.07
2023-01-26T06:54:50.081Z,100977.02
2023-01-26T06:57:19.594Z,100974.14
2023-01-26T07:00:14.354Z,100977.91
2023-01-26T07:02:55.470Z,100976.35
2023-01-26T07:05:22.200Z,100970.17
2023-01-26T07:07:50.150Z,100976.61
2023-01-26T07:10:22.556Z,100975.52
2023-01-26T07:12:49.459Z,100979.02
2023-01-26T07:15:16.615Z,100978.67
2023-01-26T07:17:44.074Z,100976.19
2023-01-26T07:20:11.397Z,100975.95
2023-01-26T07:22:38.715Z,100972.70
2023-01-26T07:25:07.583Z,100972.88
2023-01-26T07:27:34.579Z,100966.19
2023-01-26T07:30:01.553Z,100971.79
2023-01-26T07:32:28.740Z,100970.53
2023-01-26T07:34:55.708Z,100973.71
2023-01-26T07:37:22.455Z,100970.80
2023-01-26T07:39:50.764Z,100970.35
2023-01-26T07:42:17.839Z,100965.04
2023-01-26T07:44:59.142Z,100961.39
2023-01-26T07:47:25.963Z,100957.16
2023-01-26T07:49:52.669Z,100959.45
2023-01-26T12:36:00.474Z,100771.27
2023-01-26T12:38:36.684Z,100761.17
2023-01-26T12:41:10.273Z,100763.01
2023-01-26T12:43:52.473Z,100761.34
2023-01-26T12:46:19.454Z,100756.55
2023-01-26T12:49:04.184Z,100760.56
2023-01-26T12:51:34.119Z,100754.58
2023-01-26T12:54:22.393Z,100758.92
2023-01-26T12:56:51.356Z,100749.98
2023-01-26T12:59:28.229Z,100750.18
2023-01-26T13:02:23.327Z,100748.30
2023-01-26T13:04:50.284Z,100750.80
2023-01-26T13:07:33.814Z,100741.52
2023-01-26T13:10:07.837Z,100745.80
2023-01-26T13:12:52.131Z,100741.02
2023-01-26T13:15:23.811Z,100742.38
2023-01-26T13:17:51.939Z,100738.14
2023-01-26T13:20:44.975Z,100734.80
2023-01-26T13:23:27.892Z,100735.29
2023-01-26T13:26:17.949Z,100734.93
2023-01-26T13:28:45.583Z,100734.70
2023-01-26T13:31:12.772Z,100742.42
2023-01-26T13:33:42.008Z,100742.05
2023-01-26T13:36:15.475Z,100736.90
2023-01-26T13:39:03.519Z,100747.09
2023-01-26T13:41:32.045Z,100738.49
2023-01-26T13:44:08.598Z,100740.77
2023-01-26T13:46:40.517Z,100736.38
2023-01-26T13:49:24.633Z,100734.98
2023-01-26T13:51:51.713Z,100730.20
2023-01-26T13:54:18.797Z,100731.05
2023-01-26T13:57:05.951Z,100736.46
2023-01-26T13:59:33.904Z,100728.73
2023-01-26T14:02:01.093Z,100726.08
2023-01-26T14:04:31.642Z,100727.28
2023-01-26T14:07:01.621Z,100726.58
2023-01-26T14:09:31.030Z,100718.41
2023-01-26T14:12:03.133Z,100718.56
2023-01-26T14:14:35.364Z,100720.98
2023-01-26T14:17:22.986Z,100722.65
2023-01-26T14:19:49.700Z,100715.26
2023-01-26T14:22:18.400Z,100715.05
2023-01-26T14:24:50.055Z,100710.31
2023-01-26T14:27:32.321Z,100700.33
2023-01-26T14:29:59.811Z,100705.58
2023-01-26T14:32:29.430Z,100696.91
2023-01-26T14:35:00.365Z,100698.23
2023-01-26T14:37:27.932Z,100705.63
2023-01-26T14:46:47.623Z,100701.77
2023-01-26T14:49:17.735Z,100696.39
2023-01-26T14:51:46.303Z,100702.40
2023-01-26T14:54:33.791Z,100695.58
2023-01-26T14:57:02.479Z,100696.30
2023-01-26T14:59:38.631Z,100694.05
2023-01-26T15:02:19.237Z,100691.05
2023-01-26T15:04:52.607Z,100682.73
2023-01-26T15:07:22.478Z,100684.39
2023-01-26T15:09:54.683Z,100686.15
2023-01-26T15:12:23.173Z,100689.98
2023-01-26T15:21:20.332Z,100694.02
2023-01-26T15:23:52.678Z,100696.60
2023-01-26T15:26:35.461Z,100695.17
2023-01-26T15:29:05.264Z,100701.30
2023-01-26T15:31:38.270Z,100701.48
2023-01-26T15:34:06.781Z,100700.23
2023-01-26T15:36:49.477Z,100696.05
2023-01-26T15:39:18.765Z,100696.65
2023-01-26T15:41:59.537Z,100691.77
2023-01-26T15:44:27.916Z,100693.39
2023-01-26T15:46:59.464Z,100694.44
2023-01-26T15:49:27.748Z,100694.80
2023-01-26T15:51:55.829Z,100693.42
2023-01-26T15:54:24.197Z,100696.96
2023-01-26T15:56:52.623Z,100693.98
2023-01-26T15:59:20.868Z,100693.27
2023-01-26T16:01:49.061Z,100692.37
2023-01-26T16:04:17.284Z,100690.03
2023-01-26T16:06:45.412Z,100691.04
2023-01-26T16:09:13.724Z,100695.36
2023-01-26T20:10:06.529Z,100680.63
2023-01-26T20:12:36.227Z,100660.84
2023-01-26T20:15:04.833Z,100653.98
2023-01-26T20:17:31.804Z,100650.79
2023-01-26T20:19:58.755Z,100651.99
2023-01-26T20:22:33.051Z,100648.66
2023-01-26T20:25:00.200Z,100652.80
2023-01-26T20:27:28.971Z,100646.47
2023-01-26T20:29:55.752Z,100649.80
2023-01-26T20:32:22.819Z,100650.12
2023-01-26T20:34:51.393Z,100645.48
2023-01-26T20:37:18.770Z,100651.92
2023-01-26T20:39:46.990Z,100649.17
2023-01-26T20:42:16.117Z,100649.21
2023-01-26T20:44:43.540Z,100649.15
2023-01-26T20:47:10.704Z,100646.84
2023-01-26T20:49:42.069Z,100645.90
2023-01-26T20:52:09.320Z,100641.73
2023-01-26T20:54:36.364Z,100639.98
2023-01-26T20:57:03.507Z,100639.79
2023-01-26T20:59:30.481Z,100638.71
2023-01-26T21:01:57.393Z,100642.59
2023-01-26T21:04:24.474Z,100641.02
2023-01-26T21:06:53.694Z,100635.42
2023-01-26T21:09:20.535Z,100640.52
2023-01-26T21:11:49.185Z,100635.41
2023-01-26T21:14:16.009Z,100634.19
2023-01-26T21:16:44.891Z,100630.86
2023-01-26T21:19:11.662Z,100629.83
2023-01-26T21:21:38.603Z,100626.40
2023-01-26T21:24:06.893Z,100623.31
2023-01-26T21:26:34.550Z,100622.98
2023-01-26T21:29:01.992Z,100615.59
2023-01-26T21:31:30.533Z,100615.06
2023-01-26T21:33:57.637Z,100610.66
2023-01-26T21:36:26.900Z,100607.75
2023-01-26T21:38:55.549Z,100607.98
2023-01-26T21:41:42.957Z,100609.38
2023-01-26T21:44:23.699Z,100614.13
2023-01-26T21:46:52.655Z,100610.90
2023-01-26T21:49:19.768Z,100612.98
2023-01-26T21:52:06.227Z,100613.89
2023-01-26T21:54:34.364Z,100607.65
2023-01-26T21:57:01.921Z,100608.66
2023-01-26T21:59:31.429Z,100616.29
2023-01-26T22:01:58.268Z,100613.48
2023-01-26T22:04:27.344Z,100612.24
2023-01-26T22:06:55.364Z,100614.00
2023-01-26T22:09:23.401Z,100613.66
2023-01-26T22:11:50.632Z,100607.32
2023-01-26T22:14:21.528Z,100609.41
2023-01-26T22:16:51.668Z,100609.20
2023-01-26T22:19:19.264Z,100605.15
2023-01-26T22:21:45.925Z,100600.24
2023-01-26T22:24:13.735Z,100598.30
2023-01-26T22:26:40.827Z,100595.96
2023-01-26T22:29:09.866Z,100596.08
2023-01-26T22:31:37.058Z,100593.34
2023-01-26T22:34:04.785Z,100595.27
2023-01-26T22:36:32.837Z,100595.59
2023-01-26T22:39:00.122Z,100589.41
